Time,TemperatureF,DewpointF,PressureIn,WindDirection,WindDirectionDegrees,WindSpeedMPH,WindSpeedGustMPH,Humidity,HourlyPrecipIn,Conditions,Clouds,dailyrainin,SoftwareType,DateUTC
2013-11-14 00:03:00,22.6,11.0,29.94,WSW,250,0.5,4.0,57,0.00,,,0.00,WSDL version 420,2013-11-14 05:03:00,
2013-11-14 00:18:00,21.2,9.7,29.97,SW,228,1.1,2.7,57,0.00,,,0.00,WSDL version 420,2013-11-14 05:18:00,
2013-11-14 00:33:00,21.0,10.1,29.94,WNW,299,0.5,3.1,59,0.00,,,0.00,WSDL version 420,2013-11-14 05:33:00,
2013-11-14 00:48:00,21.0,10.6,29.94,SSW,199,0.0,2.5,60,0.00,,,0.00,WSDL version 420,2013-11-14 05:48:00,
2013-11-14 01:03:00,21.7,11.6,29.91,SE,135,1.1,2.9,61,0.00,,,0.00,WSDL version 420,2013-11-14 06:03:00,
2013-11-14 01:18:00,22.5,12.6,29.94,SW,233,0.0,3.1,62,0.00,,,0.00,WSDL version 420,2013-11-14 06:18:00,
2013-11-14 01:33:00,22.6,13.6,29.94,ESE,106,0.8,2.9,64,0.00,,,0.00,WSDL version 420,2013-11-14 06:33:00,
2013-11-14 01:48:00,22.6,13.1,29.94,WNW,293,0.0,3.1,63,0.00,,,0.00,WSDL version 420,2013-11-14 06:48:00,
2013-11-14 02:03:00,22.6,13.3,29.94,WSW,253,0.0,2.5,64,0.00,,,0.00,WSDL version 420,2013-11-14 07:03:00,
2013-11-14 02:18:00,22.6,13.4,29.91,NE,35,0.8,2.7,64,0.00,,,0.00,WSDL version 420,2013-11-14 07:18:00,
2013-11-14 02:33:00,22.8,13.9,29.91,NNW,332,0.6,3.4,65,0.00,,,0.00,WSDL version 420,2013-11-14 07:33:00,
2013-11-14 02:48:00,24.1,15.9,29.94,West,270,1.5,6.9,67,0.00,,,0.00,WSDL version 420,2013-11-14 07:48:00,
2013-11-14 03:03:00,25.2,16.3,29.94,NE,48,1.8,4.5,65,-99.99,,,-99.99,WSDL version 420,2013-11-14 08:03:00,
2013-11-14 03:18:00,25.8,16.3,29.94,SSW,206,2.4,6.3,63,0.00,,,0.00,WSDL version 420,2013-11-14 08:18:00,
2013-11-14 03:33:00,26.2,16.1,29.94,South,191,2.7,5.4,61,0.00,,,0.00,WSDL version 420,2013-11-14 08:33:00,
2013-11-14 03:48:00,26.4,16.1,29.94,West,266,0.6,3.8,61,0.00,,,0.00,WSDL version 420,2013-11-14 08:48:00,
2013-11-14 04:03:00,26.5,16.2,29.94,South,190,1.8,3.6,61,0.00,,,0.00,WSDL version 420,2013-11-14 09:03:00,
2013-11-14 04:18:00,26.8,16.1,29.94,West,280,1.4,4.3,60,0.00,,,0.00,WSDL version 420,2013-11-14 09:18:00,
2013-11-14 04:33:00,26.8,16.1,29.94,SW,236,0.4,3.4,60,0.00,,,0.00,WSDL version 420,2013-11-14 09:33:00,
2013-11-14 04:48:00,26.8,16.1,29.94,NNW,344,0.6,4.0,60,0.00,,,0.00,WSDL version 420,2013-11-14 09:48:00,
2013-11-14 05:03:00,26.8,15.7,29.91,West,259,3.1,6.0,59,-99.99,,,-99.99,WSDL version 420,2013-11-14 10:03:00,
2013-11-14 05:18:00,27.0,15.8,29.91,West,264,4.4,8.5,58,0.00,,,0.00,WSDL version 420,2013-11-14 10:18:00,
2013-11-14 05:33:00,27.0,15.6,29.91,SW,233,2.8,6.5,58,0.00,,,0.00,WSDL version 420,2013-11-14 10:33:00,
2013-11-14 05:48:00,27.3,15.6,29.94,South,170,4.0,6.5,57,0.00,,,0.00,WSDL version 420,2013-11-14 10:48:00,
2013-11-14 06:03:00,27.5,15.7,29.94,East,93,3.7,7.6,57,0.00,,,0.00,WSDL version 420,2013-11-14 11:03:00,
2013-11-14 06:18:00,27.6,15.9,29.91,WSW,253,2.7,4.3,57,0.00,,,0.00,WSDL version 420,2013-11-14 11:18:00,
2013-11-14 06:33:00,27.7,15.9,29.94,WSW,240,2.5,3.8,57,0.00,,,0.00,WSDL version 420,2013-11-14 11:33:00,
2013-11-14 06:48:00,27.9,15.7,29.94,SE,135,2.6,6.0,56,0.00,,,0.00,WSDL version 420,2013-11-14 11:48:00,
2013-11-14 07:03:00,27.9,15.7,29.94,SSE,167,2.1,4.9,56,0.00,,,0.00,WSDL version 420,2013-11-14 12:03:00,
2013-11-14 07:18:00,28.0,15.7,29.94,SW,219,3.3,5.6,55,0.00,,,0.00,WSDL version 420,2013-11-14 12:18:00,
2013-11-14 07:35:00,28.4,15.9,29.94,SSW,212,2.4,4.5,55,0.00,,,0.00,WSDL version 420,2013-11-14 12:35:00,
2013-11-14 07:50:00,28.6,15.9,29.94,SW,222,3.4,4.9,54,0.00,,,0.00,WSDL version 420,2013-11-14 12:50:00,
2013-11-14 08:05:00,28.8,16.0,29.94,ENE,72,2.1,3.8,55,0.00,,,0.00,WSDL version 420,2013-11-14 13:05:00,
2013-11-14 08:20:00,28.9,15.7,29.94,SE,135,2.9,5.8,54,0.00,,,0.00,WSDL version 420,2013-11-14 13:20:00,
2013-11-14 08:35:00,29.3,16.0,29.94,SSW,199,4.0,4.7,53,-99.99,,,-99.99,WSDL version 420,2013-11-14 13:35:00,
2013-11-14 08:50:00,29.6,16.2,29.94,SE,135,2.5,5.6,53,0.00,,,0.00,WSDL version 420,2013-11-14 13:50:00,
2013-11-14 09:05:00,30.1,16.7,29.94,NE,42,1.8,3.6,53,0.00,,,0.00,WSDL version 420,2013-11-14 14:05:00,
2013-11-14 09:20:00,30.6,17.2,29.94,ENE,71,0.7,2.9,53,0.00,,,0.00,WSDL version 420,2013-11-14 14:20:00,
2013-11-14 09:35:00,31.0,17.6,29.94,East,93,2.5,3.8,53,0.00,,,0.00,WSDL version 420,2013-11-14 14:35:00,
2013-11-14 09:50:00,31.3,17.9,29.94,SSE,167,2.2,6.0,53,0.00,,,0.00,WSDL version 420,2013-11-14 14:50:00,
2013-11-14 10:05:00,31.6,18.2,29.91,ESE,113,3.1,4.3,53,0.00,,,0.00,WSDL version 420,2013-11-14 15:05:00,
2013-11-14 10:20:00,32.1,18.0,29.94,East,101,1.1,3.1,53,0.00,,,0.00,WSDL version 420,2013-11-14 15:20:00,
2013-11-14 10:35:00,32.5,17.2,29.94,SSE,154,2.9,3.8,53,0.00,,,0.00,WSDL version 420,2013-11-14 15:35:00,
2013-11-14 10:50:00,32.7,17.2,29.94,South,186,2.8,5.4,52,0.00,,,0.00,WSDL version 420,2013-11-14 15:50:00,
2013-11-14 11:05:00,33.2,17.9,29.91,SSW,200,2.8,5.6,52,0.00,,,0.00,WSDL version 420,2013-11-14 16:05:00,
2013-11-14 11:20:00,33.6,18.3,29.97,NW,304,2.9,5.6,53,0.00,,,0.00,WSDL version 420,2013-11-14 16:20:00,
2013-11-14 11:35:00,34.0,18.7,29.94,West,274,1.9,5.6,53,0.00,,,0.00,WSDL version 420,2013-11-14 16:35:00,
2013-11-14 11:50:00,34.5,19.1,29.94,SE,135,1.4,3.8,53,0.00,,,0.00,WSDL version 420,2013-11-14 16:50:00,
2013-11-14 12:06:00,35.1,19.2,-100.00,SSW,212,1.3,4.7,52,0.00,,,0.00,WSDL version 420,2013-11-14 17:06:00,
2013-11-14 12:21:00,35.6,19.8,29.94,South,180,2.0,4.3,52,-99.99,,,-99.99,WSDL version 420,2013-11-14 17:21:00,
2013-11-14 12:44:00,36.9,20.9,29.94,SE,145,1.9,3.8,52,0.00,,,0.00,WSDL version 420,2013-11-14 17:44:00,
2013-11-14 12:59:00,37.4,20.9,29.94,SSE,161,2.2,5.4,51,0.00,,,0.00,WSDL version 420,2013-11-14 17:59:00,
2013-11-14 13:14:00,37.6,21.1,29.94,SE,141,1.5,5.4,51,0.00,,,0.00,WSDL version 420,2013-11-14 18:14:00,
2013-11-14 13:29:00,37.9,21.9,29.94,SE,141,2.1,6.0,52,0.00,,,0.00,WSDL version 420,2013-11-14 18:29:00,
2013-11-14 13:44:00,40.3,23.7,29.94,SSW,197,4.1,5.6,51,0.00,,,0.00,WSDL version 420,2013-11-14 18:44:00,
2013-11-14 13:59:00,40.6,23.4,29.91,East,101,2.7,6.5,49,0.00,,,0.00,WSDL version 420,2013-11-14 18:59:00,
2013-11-14 14:14:00,39.9,22.6,29.91,SE,129,2.1,6.3,50,0.00,,,0.00,WSDL version 420,2013-11-14 19:14:00,
2013-11-14 14:29:00,39.1,22.3,29.94,ESE,104,2.5,7.6,51,0.00,,,0.00,WSDL version 420,2013-11-14 19:29:00,
2013-11-14 14:44:00,38.3,21.7,29.91,SSE,161,2.3,7.2,51,0.00,,,0.00,WSDL version 420,2013-11-14 19:44:00,
2013-11-14 14:59:00,37.4,21.4,29.94,ENE,71,2.2,5.6,52,0.00,,,0.00,WSDL version 420,2013-11-14 19:59:00,
2013-11-14 15:14:00,36.9,21.8,29.97,SE,146,3.1,5.4,54,0.00,,,0.00,WSDL version 420,2013-11-14 20:14:00,
2013-11-14 15:29:00,37.0,21.9,29.94,South,188,0.8,5.6,54,0.00,,,0.00,WSDL version 420,2013-11-14 20:29:00,
2013-11-14 15:44:00,37.0,21.9,29.91,SW,219,1.4,4.0,54,0.00,,,0.00,WSDL version 420,2013-11-14 20:44:00,
2013-11-14 15:59:00,36.5,21.4,29.94,SE,146,1.3,4.0,54,0.00,,,0.00,WSDL version 420,2013-11-14 20:59:00,
2013-11-14 16:14:00,36.0,21.4,29.94,SE,138,2.2,3.4,55,0.00,,,0.00,WSDL version 420,2013-11-14 21:14:00,
2013-11-14 16:29:00,36.3,22.1,29.91,NNE,23,2.3,5.6,56,0.00,,,0.00,WSDL version 420,2013-11-14 21:29:00,
2013-11-14 16:44:00,35.2,21.6,29.94,NW,326,1.1,4.5,58,0.00,,,0.00,WSDL version 420,2013-11-14 21:44:00,
2013-11-14 16:59:00,35.3,22.4,29.94,WNW,296,2.2,6.3,59,0.00,,,0.00,WSDL version 420,2013-11-14 21:59:00,
2013-11-14 17:14:00,35.6,22.3,29.94,West,264,2.3,6.0,58,0.00,,,0.00,WSDL version 420,2013-11-14 22:14:00,
2013-11-14 17:29:00,35.6,21.9,29.94,West,279,3.0,6.5,57,0.00,,,0.00,WSDL version 420,2013-11-14 22:29:00,
2013-11-14 17:44:00,35.2,21.9,29.97,SW,225,1.8,4.9,58,0.00,,,0.00,WSDL version 420,2013-11-14 22:44:00,
2013-11-14 17:59:00,34.9,21.6,29.97,West,267,2.6,5.6,58,0.00,,,0.00,WSDL version 420,2013-11-14 22:59:00,
2013-11-14 18:14:00,34.3,21.5,29.97,WSW,254,1.8,3.8,59,0.00,,,0.00,WSDL version 420,2013-11-14 23:14:00,
2013-11-14 18:29:00,33.0,20.7,29.97,West,280,1.7,4.7,60,0.00,,,0.00,WSDL version 420,2013-11-14 23:29:00,
2013-11-14 18:44:00,32.2,21.1,29.97,WNW,283,2.6,4.3,63,0.00,,,0.00,WSDL version 420,2013-11-14 23:44:00,
2013-11-14 18:59:00,31.5,22.3,30.00,WSW,238,1.2,3.8,65,0.00,,,0.00,WSDL version 420,2013-11-14 23:59:00,
2013-11-14 19:14:00,32.0,22.8,29.97,West,270,1.1,3.8,66,0.00,,,0.00,WSDL version 420,2013-11-15 00:14:00,
2013-11-14 19:29:00,31.7,23.1,30.00,WSW,256,1.2,3.6,67,0.00,,,0.00,WSDL version 420,2013-11-15 00:29:00,
2013-11-14 19:44:00,31.6,23.3,29.97,WSW,248,0.7,3.6,68,-99.99,,,-99.99,WSDL version 420,2013-11-15 00:44:00,
2013-11-14 19:59:00,30.7,22.3,29.97,WSW,245,0.5,2.2,68,0.00,,,0.00,WSDL version 420,2013-11-15 00:59:00,
2013-11-14 20:14:00,30.2,22.1,30.00,WSW,254,1.3,2.9,69,0.00,,,0.00,WSDL version 420,2013-11-15 01:14:00,
2013-11-14 20:29:00,30.1,22.5,30.00,West,259,0.0,2.2,70,0.00,,,0.00,WSDL version 420,2013-11-15 01:29:00,
2013-11-14 20:44:00,29.8,22.5,30.00,North,360,1.0,3.1,71,0.00,,,0.00,WSDL version 420,2013-11-15 01:44:00,
2013-11-14 20:59:00,30.0,22.9,30.00,WSW,248,0.1,2.2,72,0.00,,,0.00,WSDL version 420,2013-11-15 01:59:00,
2013-11-14 21:14:00,29.7,22.4,30.00,SW,235,1.2,2.0,71,0.00,,,0.00,WSDL version 420,2013-11-15 02:14:00,
2013-11-14 21:29:00,29.7,22.6,30.00,SW,235,0.5,2.0,72,0.00,,,0.00,WSDL version 420,2013-11-15 02:29:00,
2013-11-14 21:44:00,29.5,22.5,30.00,WSW,248,1.0,2.5,72,0.00,,,0.00,WSDL version 420,2013-11-15 02:44:00,
2013-11-14 21:59:00,29.3,22.3,30.00,WSW,248,1.6,2.2,72,0.00,,,0.00,WSDL version 420,2013-11-15 02:59:00,
2013-11-14 22:14:00,29.3,22.4,30.00,West,259,0.0,2.5,73,0.00,,,0.00,WSDL version 420,2013-11-15 03:14:00,
2013-11-14 22:29:00,29.3,22.6,30.00,WSW,248,1.4,2.5,73,0.00,,,0.00,WSDL version 420,2013-11-15 03:29:00,
2013-11-14 22:44:00,29.3,22.6,30.00,WSW,245,1.3,2.5,73,0.00,,,0.00,WSDL version 420,2013-11-15 03:44:00,
2013-11-14 22:59:00,29.5,22.8,30.00,WSW,238,1.5,2.5,73,0.00,,,0.00,WSDL version 420,2013-11-15 03:59:00,
2013-11-14 23:15:00,29.2,22.5,30.00,WSW,240,1.4,2.0,73,0.00,,,0.00,WSDL version 420,2013-11-15 04:15:00,
2013-11-14 23:30:00,29.3,22.6,-100.00,WSW,241,0.9,2.7,73,0.00,,,0.00,WSDL version 420,2013-11-15 04:30:00,
2013-11-14 23:45:00,29.3,22.6,30.00,SW,222,1.1,2.9,73,0.00,,,0.00,WSDL version 420,2013-11-15 04:45:00,